MMUN/CUN METAR and TAF weather

Enter ICAO airport designator
Station Type Date Time Source
MMUN METAR 2020/01/28 10:47 UTC NOAA

MMUN 281047Z 00000KT 7SM FEW015 19/19 A2990 RMK 8/500 HZY


Station Type Date Time Source
MMUN Decoded METAR 2020/01/28 10:47 UTC NOAA

Cancun International Airport, Mexico (MMUN) 21-02N 086-52W
Jan 28, 2020 - 05:47 AM EST / 2020.01.28 1047 UTC
Wind: Calm:0
Visibility: 7 mile(s):0
Sky conditions: mostly clear
Temperature: 66 F (19 C)
Dew Point: 66 F (19 C)
Relative Humidity: 100%
Pressure (altimeter): 29.9 in. Hg (1012 hPa)
ob: MMUN 281047Z 00000KT 7SM FEW015 19/19 A2990 RMK 8/500 HZY
cycle: 11

Station Type Date Time Source
MMUN TAF 2020/01/28 12:45 UTC NOAA

TAF MMUN 281138Z 2812/2918 06005KT P6SM SCT015 SCT070 TX30/2820Z TN18/2812Z
FM281600 08010KT P6SM SCT015
FM290200 08005KT P6SM SCT015
FM291600 13010KT P6SM SCT015

Example: see airport list